sensor_id;sensor_type;location;lat;lon;timestamp;pressure;altitude;pressure_sealevel;temperature;humidity
45357;BME280;31092;51.924;21.448;2022-12-18T00:02:13;101555.16;;;-6.88;100.00
45357;BME280;31092;51.924;21.448;2022-12-18T00:04:38;101629.72;;;-6.50;100.00
45357;BME280;31092;51.924;21.448;2022-12-18T00:07:04;101544.84;;;-6.99;100.00
45357;BME280;31092;51.924;21.448;2022-12-18T00:09:29;101567.34;;;-6.84;100.00
45357;BME280;31092;51.924;21.448;2022-12-18T00:11:55;101490.28;;;-7.28;100.00
45357;BME280;31092;51.924;21.448;2022-12-18T00:14:20;101562.25;;;-6.93;100.00
45357;BME280;31092;51.924;21.448;2022-12-18T00:16:46;101541.44;;;-7.05;100.00
45357;BME280;31092;51.924;21.448;2022-12-18T00:19:13;101535.34;;;-7.04;100.00
45357;BME280;31092;51.924;21.448;2022-12-18T00:21:38;101569.91;;;-6.81;100.00
45357;BME280;31092;51.924;21.448;2022-12-18T00:24:04;101601.09;;;-6.65;100.00
45357;BME280;31092;51.924;21.448;2022-12-18T00:26:31;101679.13;;;-6.24;100.00
45357;BME280;31092;51.924;21.448;2022-12-18T00:29:03;101636.69;;;-6.49;100.00
45357;BME280;31092;51.924;21.448;2022-12-18T00:31:30;101631.47;;;-6.51;100.00
45357;BME280;31092;51.924;21.448;2022-12-18T00:33:56;101622.84;;;-6.57;100.00
45357;BME280;31092;51.924;21.448;2022-12-18T00:36:30;101554.50;;;-7.01;100.00
45357;BME280;31092;51.924;21.448;2022-12-18T00:38:57;101625.44;;;-6.56;100.00
45357;BME280;31092;51.924;21.448;2022-12-18T00:41:24;101560.50;;;-6.94;100.00
45357;BME280;31092;51.924;21.448;2022-12-18T00:44:10;101555.38;;;-7.02;100.00
45357;BME280;31092;51.924;21.448;2022-12-18T00:46:37;101684.31;;;-6.21;100.00
45357;BME280;31092;51.924;21.448;2022-12-18T00:49:03;101597.81;;;-6.78;100.00
45357;BME280;31092;51.924;21.448;2022-12-18T00:51:29;101683.63;;;-6.34;100.00
45357;BME280;31092;51.924;21.448;2022-12-18T00:53:55;101699.19;;;-6.21;100.00
45357;BME280;31092;51.924;21.448;2022-12-18T00:56:22;101699.28;;;-6.28;100.00
45357;BME280;31092;51.924;21.448;2022-12-18T00:58:49;101563.31;;;-7.06;100.00
45357;BME280;31092;51.924;21.448;2022-12-18T01:01:14;101664.66;;;-6.51;100.00
45357;BME280;31092;51.924;21.448;2022-12-18T01:03:40;101713.97;;;-6.16;100.00
45357;BME280;31092;51.924;21.448;2022-12-18T01:06:10;101571.09;;;-7.02;100.00
45357;BME280;31092;51.924;21.448;2022-12-18T01:08:37;101622.19;;;-6.71;100.00
45357;BME280;31092;51.924;21.448;2022-12-18T01:11:08;101715.84;;;-6.24;100.00
45357;BME280;31092;51.924;21.448;2022-12-18T01:13:34;101587.63;;;-6.98;100.00
45357;BME280;31092;51.924;21.448;2022-12-18T01:16:00;101678.56;;;-6.44;100.00
45357;BME280;31092;51.924;21.448;2022-12-18T01:18:25;101637.00;;;-6.70;100.00
45357;BME280;31092;51.924;21.448;2022-12-18T01:20:51;101674.25;;;-6.47;100.00
45357;BME280;31092;51.924;21.448;2022-12-18T01:23:16;101747.03;;;-6.06;100.00
45357;BME280;31092;51.924;21.448;2022-12-18T01:25:42;101627.47;;;-6.76;100.00
45357;BME280;31092;51.924;21.448;2022-12-18T01:28:07;101607.50;;;-6.83;100.00
45357;BME280;31092;51.924;21.448;2022-12-18T01:30:32;101587.59;;;-6.95;100.00
45357;BME280;31092;51.924;21.448;2022-12-18T01:32:58;101637.72;;;-6.59;100.00
45357;BME280;31092;51.924;21.448;2022-12-18T01:35:23;101727.03;;;-6.11;100.00
45357;BME280;31092;51.924;21.448;2022-12-18T01:37:49;101601.38;;;-6.84;100.00
45357;BME280;31092;51.924;21.448;2022-12-18T01:40:14;101670.72;;;-6.46;100.00
45357;BME280;31092;51.924;21.448;2022-12-18T01:42:40;101652.56;;;-6.60;100.00
45357;BME280;31092;51.924;21.448;2022-12-18T01:47:48;101764.44;;;-6.02;100.00
45357;BME280;31092;51.924;21.448;2022-12-18T01:52:54;101677.84;;;-6.56;100.00
45357;BME280;31092;51.924;21.448;2022-12-18T01:55:22;101659.66;;;-6.66;100.00
45357;BME280;31092;51.924;21.448;2022-12-18T01:57:52;101655.44;;;-6.75;100.00
45357;BME280;31092;51.924;21.448;2022-12-18T02:00:20;101723.78;;;-6.30;100.00
45357;BME280;31092;51.924;21.448;2022-12-18T02:02:46;101654.56;;;-6.76;100.00
45357;BME280;31092;51.924;21.448;2022-12-18T02:05:15;101727.38;;;-6.36;100.00
45357;BME280;31092;51.924;21.448;2022-12-18T02:08:03;101638.19;;;-6.91;100.00
45357;BME280;31092;51.924;21.448;2022-12-18T02:15:44;101752.53;;;-6.22;100.00
45357;BME280;31092;51.924;21.448;2022-12-18T02:18:19;101782.00;;;-6.05;100.00
45357;BME280;31092;51.924;21.448;2022-12-18T02:28:51;101815.06;;;-5.93;100.00
45357;BME280;31092;51.924;21.448;2022-12-18T02:31:22;101675.41;;;-6.69;100.00
45357;BME280;31092;51.924;21.448;2022-12-18T02:33:51;101789.94;;;-6.08;100.00
45357;BME280;31092;51.924;21.448;2022-12-18T02:36:20;101769.00;;;-6.13;100.00
45357;BME280;31092;51.924;21.448;2022-12-18T02:38:47;101757.78;;;-6.24;100.00
45357;BME280;31092;51.924;21.448;2022-12-18T02:41:14;101681.53;;;-6.67;100.00
45357;BME280;31092;51.924;21.448;2022-12-18T02:43:46;101801.19;;;-6.00;100.00
45357;BME280;31092;51.924;21.448;2022-12-18T02:46:34;101705.84;;;-6.58;100.00
45357;BME280;31092;51.924;21.448;2022-12-18T02:51:53;101786.50;;;-6.12;100.00
45357;BME280;31092;51.924;21.448;2022-12-18T02:54:51;101847.25;;;-5.84;100.00
45357;BME280;31092;51.924;21.448;2022-12-18T02:57:24;101796.94;;;-6.10;100.00
45357;BME280;31092;51.924;21.448;2022-12-18T03:00:10;101850.75;;;-5.83;100.00
45357;BME280;31092;51.924;21.448;2022-12-18T03:05:35;101799.66;;;-6.16;100.00
45357;BME280;31092;51.924;21.448;2022-12-18T03:08:06;101701.66;;;-6.72;100.00
45357;BME280;31092;51.924;21.448;2022-12-18T03:10:37;101746.75;;;-6.46;100.00
45357;BME280;31092;51.924;21.448;2022-12-18T03:13:27;101834.47;;;-6.04;100.00
45357;BME280;31092;51.924;21.448;2022-12-18T03:15:55;101853.56;;;-5.95;100.00
45357;BME280;31092;51.924;21.448;2022-12-18T03:18:30;101856.22;;;-5.97;100.00
45357;BME280;31092;51.924;21.448;2022-12-18T03:20:58;101798.06;;;-6.28;100.00
45357;BME280;31092;51.924;21.448;2022-12-18T03:23:29;101882.25;;;-5.83;100.00
45357;BME280;31092;51.924;21.448;2022-12-18T03:25:59;101732.16;;;-6.67;100.00
45357;BME280;31092;51.924;21.448;2022-12-18T03:28:28;101771.28;;;-6.50;100.00
45357;BME280;31092;51.924;21.448;2022-12-18T03:30:57;101863.22;;;-5.96;100.00
45357;BME280;31092;51.924;21.448;2022-12-18T03:33:32;101842.44;;;-6.11;100.00
45357;BME280;31092;51.924;21.448;2022-12-18T03:36:00;101839.81;;;-6.11;100.00
45357;BME280;31092;51.924;21.448;2022-12-18T03:38:25;101890.16;;;-5.88;100.00
45357;BME280;31092;51.924;21.448;2022-12-18T03:41:33;101915.34;;;-5.74;100.00
45357;BME280;31092;51.924;21.448;2022-12-18T03:43:50;101909.25;;;-5.75;100.00
45357;BME280;31092;51.924;21.448;2022-12-18T03:49:51;101880.75;;;-5.99;100.00
45357;BME280;31092;51.924;21.448;2022-12-18T03:54:47;101870.41;;;-6.10;100.00
45357;BME280;31092;51.924;21.448;2022-12-18T03:57:22;101729.84;;;-6.91;100.00
45357;BME280;31092;51.924;21.448;2022-12-18T03:59:52;101905.91;;;-5.86;100.00
45357;BME280;31092;51.924;21.448;2022-12-18T04:02:22;101805.28;;;-6.45;100.00
45357;BME280;31092;51.924;21.448;2022-12-18T04:04:51;101765.31;;;-6.63;100.00
45357;BME280;31092;51.924;21.448;2022-12-18T04:07:18;101801.72;;;-6.41;100.00
45357;BME280;31092;51.924;21.448;2022-12-18T04:09:45;101781.88;;;-6.59;100.00
45357;BME280;31092;51.924;21.448;2022-12-18T04:12:11;101779.13;;;-6.52;100.00
45357;BME280;31092;51.924;21.448;2022-12-18T04:14:36;101878.16;;;-6.03;100.00
45357;BME280;31092;51.924;21.448;2022-12-18T04:17:02;101813.91;;;-6.37;100.00
45357;BME280;31092;51.924;21.448;2022-12-18T04:19:28;101809.53;;;-6.37;100.00
45357;BME280;31092;51.924;21.448;2022-12-18T04:21:54;101829.56;;;-6.31;100.00
45357;BME280;31092;51.924;21.448;2022-12-18T04:24:19;101918.97;;;-5.82;100.00
45357;BME280;31092;51.924;21.448;2022-12-18T04:26:45;101878.22;;;-6.07;100.00
45357;BME280;31092;51.924;21.448;2022-12-18T04:29:11;101902.53;;;-5.94;100.00
45357;BME280;31092;51.924;21.448;2022-12-18T04:31:37;101800.16;;;-6.55;100.00
45357;BME280;31092;51.924;21.448;2022-12-18T04:34:03;101740.38;;;-6.94;100.00
45357;BME280;31092;51.924;21.448;2022-12-18T04:36:29;101825.41;;;-6.46;100.00
45357;BME280;31092;51.924;21.448;2022-12-18T04:38:54;101817.56;;;-6.49;100.00
45357;BME280;31092;51.924;21.448;2022-12-18T04:41:20;101859.28;;;-6.31;100.00
45357;BME280;31092;51.924;21.448;2022-12-18T04:43:46;101822.91;;;-6.58;100.00
45357;BME280;31092;51.924;21.448;2022-12-18T04:46:11;101927.09;;;-6.00;100.00
45357;BME280;31092;51.924;21.448;2022-12-18T04:48:37;101963.53;;;-5.79;100.00
45357;BME280;31092;51.924;21.448;2022-12-18T04:51:04;101914.13;;;-6.12;100.00
45357;BME280;31092;51.924;21.448;2022-12-18T04:53:30;101879.47;;;-6.36;100.00
45357;BME280;31092;51.924;21.448;2022-12-18T04:56:21;101856.88;;;-6.49;100.00
45357;BME280;31092;51.924;21.448;2022-12-18T04:58:49;101863.84;;;-6.48;100.00
45357;BME280;31092;51.924;21.448;2022-12-18T05:01:16;101962.00;;;-5.95;100.00
45357;BME280;31092;51.924;21.448;2022-12-18T05:03:42;101851.75;;;-6.60;100.00
45357;BME280;31092;51.924;21.448;2022-12-18T05:06:07;101888.19;;;-6.37;100.00
45357;BME280;31092;51.924;21.448;2022-12-18T05:08:34;101956.88;;;-6.01;100.00
45357;BME280;31092;51.924;21.448;2022-12-18T05:11:11;101891.69;;;-6.38;100.00
45357;BME280;31092;51.924;21.448;2022-12-18T05:13:39;101888.28;;;-6.44;100.00
45357;BME280;31092;51.924;21.448;2022-12-18T05:16:05;101954.31;;;-6.09;100.00
45357;BME280;31092;51.924;21.448;2022-12-18T05:18:31;101969.22;;;-6.11;100.00
45357;BME280;31092;51.924;21.448;2022-12-18T05:20:56;101989.22;;;-6.00;100.00
45357;BME280;31092;51.924;21.448;2022-12-18T05:23:23;102017.03;;;-5.89;100.00
45357;BME280;31092;51.924;21.448;2022-12-18T05:26:00;101898.09;;;-6.63;100.00
45357;BME280;31092;51.924;21.448;2022-12-18T05:28:28;101920.59;;;-6.44;100.00
45357;BME280;31092;51.924;21.448;2022-12-18T05:30:56;102004.03;;;-5.96;100.00
45357;BME280;31092;51.924;21.448;2022-12-18T05:33:23;101903.31;;;-6.60;100.00
45357;BME280;31092;51.924;21.448;2022-12-18T05:35:53;101950.25;;;-6.37;100.00
45357;BME280;31092;51.924;21.448;2022-12-18T05:38:21;102037.94;;;-5.83;100.00
45357;BME280;31092;51.924;21.448;2022-12-18T05:40:51;102045.81;;;-5.83;100.00
45357;BME280;31092;51.924;21.448;2022-12-18T05:43:18;101959.09;;;-6.46;100.00
45357;BME280;31092;51.924;21.448;2022-12-18T05:45:44;102033.78;;;-5.97;100.00
45357;BME280;31092;51.924;21.448;2022-12-18T05:48:12;102013.84;;;-6.14;100.00
45357;BME280;31092;51.924;21.448;2022-12-18T05:50:40;102058.09;;;-5.86;100.00
45357;BME280;31092;51.924;21.448;2022-12-18T05:53:06;102063.31;;;-5.85;100.00
45357;BME280;31092;51.924;21.448;2022-12-18T05:55:36;102057.34;;;-5.93;100.00
45357;BME280;31092;51.924;21.448;2022-12-18T05:58:03;102013.06;;;-6.22;100.00
45357;BME280;31092;51.924;21.448;2022-12-18T06:00:30;101933.09;;;-6.67;100.00
45357;BME280;31092;51.924;21.448;2022-12-18T06:02:55;102062.69;;;-6.04;100.00
45357;BME280;31092;51.924;21.448;2022-12-18T06:05:21;101880.16;;;-7.05;100.00
45357;BME280;31092;51.924;21.448;2022-12-18T06:07:46;101924.53;;;-6.88;100.00
45357;BME280;31092;51.924;21.448;2022-12-18T06:10:12;101963.59;;;-6.60;100.00
45357;BME280;31092;51.924;21.448;2022-12-18T06:12:37;101928.91;;;-6.87;100.00
45357;BME280;31092;51.924;21.448;2022-12-18T06:15:03;101951.50;;;-6.72;100.00
45357;BME280;31092;51.924;21.448;2022-12-18T06:17:32;102049.72;;;-6.17;100.00
45357;BME280;31092;51.924;21.448;2022-12-18T06:19:59;102002.78;;;-6.48;100.00
45357;BME280;31092;51.924;21.448;2022-12-18T06:22:25;102060.22;;;-6.20;100.00
45357;BME280;31092;51.924;21.448;2022-12-18T06:24:50;102116.81;;;-5.93;100.00
45357;BME280;31092;51.924;21.448;2022-12-18T06:27:16;102101.22;;;-6.10;100.00
45357;BME280;31092;51.924;21.448;2022-12-18T06:29:41;102036.84;;;-6.45;100.00
45357;BME280;31092;51.924;21.448;2022-12-18T06:32:07;102057.75;;;-6.33;100.00
45357;BME280;31092;51.924;21.448;2022-12-18T06:34:33;102076.03;;;-6.28;100.00
45357;BME280;31092;51.924;21.448;2022-12-18T06:36:59;102003.94;;;-6.78;100.00
45357;BME280;31092;51.924;21.448;2022-12-18T06:39:26;102098.72;;;-6.22;100.00
45357;BME280;31092;51.924;21.448;2022-12-18T06:41:52;102113.59;;;-6.21;100.00
45357;BME280;31092;51.924;21.448;2022-12-18T06:44:17;102033.63;;;-6.75;100.00
45357;BME280;31092;51.924;21.448;2022-12-18T06:46:43;102019.69;;;-6.81;100.00
45357;BME280;31092;51.924;21.448;2022-12-18T06:49:08;102145.00;;;-6.14;100.00
45357;BME280;31092;51.924;21.448;2022-12-18T06:51:34;102065.84;;;-6.60;100.00
45357;BME280;31092;51.924;21.448;2022-12-18T06:54:00;102043.31;;;-6.86;100.00
45357;BME280;31092;51.924;21.448;2022-12-18T06:56:25;102051.09;;;-6.80;100.00
45357;BME280;31092;51.924;21.448;2022-12-18T06:58:51;102154.69;;;-6.23;100.00
45357;BME280;31092;51.924;21.448;2022-12-18T07:01:17;102088.56;;;-6.64;100.00
45357;BME280;31092;51.924;21.448;2022-12-18T07:03:42;102186.97;;;-6.14;100.00
45357;BME280;31092;51.924;21.448;2022-12-18T07:06:16;102059.91;;;-6.88;100.00
45357;BME280;31092;51.924;21.448;2022-12-18T07:08:43;102182.63;;;-6.21;100.00
45357;BME280;31092;51.924;21.448;2022-12-18T07:11:09;102074.75;;;-6.87;100.00
45357;BME280;31092;51.924;21.448;2022-12-18T07:13:34;102168.75;;;-6.37;100.00
45357;BME280;31092;51.924;21.448;2022-12-18T07:16:05;102207.06;;;-6.14;100.00
45357;BME280;31092;51.924;21.448;2022-12-18T07:18:30;102183.63;;;-6.36;100.00
45357;BME280;31092;51.924;21.448;2022-12-18T07:20:56;102180.16;;;-6.42;100.00
45357;BME280;31092;51.924;21.448;2022-12-18T07:23:21;102212.38;;;-6.22;100.00
45357;BME280;31092;51.924;21.448;2022-12-18T07:25:47;102092.25;;;-6.92;100.00
45357;BME280;31092;51.924;21.448;2022-12-18T07:28:12;102194.19;;;-6.43;100.00
45357;BME280;31092;51.924;21.448;2022-12-18T07:30:38;102222.88;;;-6.25;100.00
45357;BME280;31092;51.924;21.448;2022-12-18T07:33:03;102201.13;;;-6.39;100.00
45357;BME280;31092;51.924;21.448;2022-12-18T07:35:29;102063.63;;;-7.26;100.00
45357;BME280;31092;51.924;21.448;2022-12-18T07:37:54;102191.59;;;-6.56;100.00
45357;BME280;31092;51.924;21.448;2022-12-18T07:40:20;102141.16;;;-6.93;100.00
45357;BME280;31092;51.924;21.448;2022-12-18T07:42:45;102144.63;;;-6.91;100.00
45357;BME280;31092;51.924;21.448;2022-12-18T07:45:11;102207.34;;;-6.56;100.00
45357;BME280;31092;51.924;21.448;2022-12-18T07:47:36;102171.66;;;-6.78;100.00
45357;BME280;31092;51.924;21.448;2022-12-18T07:50:03;102180.38;;;-6.78;100.00
45357;BME280;31092;51.924;21.448;2022-12-18T07:52:29;102038.47;;;-7.56;100.00
45357;BME280;31092;51.924;21.448;2022-12-18T07:54:54;102149.94;;;-6.97;100.00
45357;BME280;31092;51.924;21.448;2022-12-18T07:57:20;102248.31;;;-6.38;100.00
45357;BME280;31092;51.924;21.448;2022-12-18T07:59:46;102213.50;;;-6.61;100.00
45357;BME280;31092;51.924;21.448;2022-12-18T08:02:11;102254.50;;;-6.46;100.00
45357;BME280;31092;51.924;21.448;2022-12-18T08:04:37;102220.53;;;-6.72;100.00
45357;BME280;31092;51.924;21.448;2022-12-18T08:07:02;102108.19;;;-7.35;100.00
45357;BME280;31092;51.924;21.448;2022-12-18T08:09:28;102290.25;;;-6.35;100.00
45357;BME280;31092;51.924;21.448;2022-12-18T08:11:53;102156.97;;;-7.13;100.00
45357;BME280;31092;51.924;21.448;2022-12-18T08:14:19;102214.47;;;-6.82;100.00
45357;BME280;31092;51.924;21.448;2022-12-18T08:16:44;102219.72;;;-6.82;100.00
45357;BME280;31092;51.924;21.448;2022-12-18T08:19:10;102233.63;;;-6.65;100.00
45357;BME280;31092;51.924;21.448;2022-12-18T08:21:36;102158.69;;;-7.06;100.00
45357;BME280;31092;51.924;21.448;2022-12-18T08:24:02;102251.88;;;-6.49;100.00
45357;BME280;31092;51.924;21.448;2022-12-18T08:26:30;102263.25;;;-6.51;100.00
45357;BME280;31092;51.924;21.448;2022-12-18T08:28:58;102311.13;;;-6.16;100.00
45357;BME280;31092;51.924;21.448;2022-12-18T08:31:25;102320.72;;;-6.12;100.00
45357;BME280;31092;51.924;21.448;2022-12-18T08:33:52;102277.97;;;-6.28;100.00
45357;BME280;31092;51.924;21.448;2022-12-18T08:36:20;102329.41;;;-6.03;100.00
45357;BME280;31092;51.924;21.448;2022-12-18T08:38:46;102238.75;;;-6.51;100.00
45357;BME280;31092;51.924;21.448;2022-12-18T08:41:14;102174.31;;;-6.84;100.00
45357;BME280;31092;51.924;21.448;2022-12-18T08:43:41;102295.38;;;-6.10;100.00
45357;BME280;31092;51.924;21.448;2022-12-18T08:46:26;102272.72;;;-6.25;100.00
45357;BME280;31092;51.924;21.448;2022-12-18T08:48:53;102211.75;;;-6.61;100.00
45357;BME280;31092;51.924;21.448;2022-12-18T08:51:21;102280.56;;;-6.20;100.00
45357;BME280;31092;51.924;21.448;2022-12-18T08:53:46;102240.50;;;-6.45;100.00
45357;BME280;31092;51.924;21.448;2022-12-18T08:56:13;102347.66;;;-5.89;100.00
45357;BME280;31092;51.924;21.448;2022-12-18T08:58:39;102237.03;;;-6.55;100.00
45357;BME280;31092;51.924;21.448;2022-12-18T09:01:07;102308.44;;;-6.03;100.00
45357;BME280;31092;51.924;21.448;2022-12-18T09:03:36;102325.00;;;-5.93;100.00
45357;BME280;31092;51.924;21.448;2022-12-18T09:06:02;102293.56;;;-6.05;100.00
45357;BME280;31092;51.924;21.448;2022-12-18T09:08:28;102232.53;;;-6.33;100.00
45357;BME280;31092;51.924;21.448;2022-12-18T09:10:54;102206.38;;;-6.44;100.00
45357;BME280;31092;51.924;21.448;2022-12-18T09:13:20;102191.59;;;-6.56;100.00
45357;BME280;31092;51.924;21.448;2022-12-18T09:15:48;102286.63;;;-6.11;100.00
45357;BME280;31092;51.924;21.448;2022-12-18T09:18:15;102142.00;;;-6.91;100.00
45357;BME280;31092;51.924;21.448;2022-12-18T09:20:41;102305.78;;;-5.96;100.00
45357;BME280;31092;51.924;21.448;2022-12-18T09:23:07;102372.09;;;-5.74;100.00
45357;BME280;31092;51.924;21.448;2022-12-18T09:25:33;102255.34;;;-6.44;100.00
45357;BME280;31092;51.924;21.448;2022-12-18T09:28:02;102340.75;;;-5.99;100.00
45357;BME280;31092;51.924;21.448;2022-12-18T09:30:28;102384.38;;;-5.80;100.00
45357;BME280;31092;51.924;21.448;2022-12-18T09:32:54;102360.00;;;-6.02;100.00
45357;BME280;31092;51.924;21.448;2022-12-18T09:35:20;102342.53;;;-6.03;100.00
45357;BME280;31092;51.924;21.448;2022-12-18T09:37:46;102233.63;;;-6.65;100.00
45357;BME280;31092;51.924;21.448;2022-12-18T09:40:21;102263.19;;;-6.41;100.00
45357;BME280;31092;51.924;21.448;2022-12-18T09:42:56;102282.38;;;-6.32;100.00
45357;BME280;31092;51.924;21.448;2022-12-18T09:45:23;102339.94;;;-6.06;100.00
45357;BME280;31092;51.924;21.448;2022-12-18T09:47:50;102382.53;;;-5.70;100.00
45357;BME280;31092;51.924;21.448;2022-12-18T09:50:41;102284.06;;;-6.23;100.00
45357;BME280;31092;51.924;21.448;2022-12-18T09:53:11;102374.66;;;-5.65;100.00
45357;BME280;31092;51.924;21.448;2022-12-18T09:55:41;102383.34;;;-5.57;100.00
45357;BME280;31092;51.924;21.448;2022-12-18T09:58:36;102276.22;;;-6.24;100.00
45357;BME280;31092;51.924;21.448;2022-12-18T10:01:00;102283.16;;;-6.17;100.00
45357;BME280;31092;51.924;21.448;2022-12-18T10:03:25;102335.34;;;-5.76;100.00
45357;BME280;31092;51.924;21.448;2022-12-18T10:06:13;102367.63;;;-5.66;100.00
45357;BME280;31092;51.924;21.448;2022-12-18T10:20:50;102262.97;;;-6.05;100.00
45357;BME280;31092;51.924;21.448;2022-12-18T10:23:38;102323.84;;;-5.63;100.00
45357;BME280;31092;51.924;21.448;2022-12-18T10:26:09;102261.91;;;-5.85;100.00
45357;BME280;31092;51.924;21.448;2022-12-18T10:28:36;102321.09;;;-5.43;100.00
45357;BME280;31092;51.924;21.448;2022-12-18T10:31:12;102318.47;;;-5.46;100.00
45357;BME280;31092;51.924;21.448;2022-12-18T10:33:39;102352.53;;;-5.35;100.00
45357;BME280;31092;51.924;21.448;2022-12-18T10:36:07;102194.06;;;-6.30;100.00
45357;BME280;31092;51.924;21.448;2022-12-18T10:38:33;102415.28;;;-4.97;100.00
45357;BME280;31092;51.924;21.448;2022-12-18T10:41:24;102408.28;;;-4.99;100.00
45357;BME280;31092;51.924;21.448;2022-12-18T10:44:12;102374.31;;;-5.19;100.00
45357;BME280;31092;51.924;21.448;2022-12-18T10:46:38;102298.41;;;-5.53;100.00
45357;BME280;31092;51.924;21.448;2022-12-18T10:49:04;102316.66;;;-5.41;100.00
45357;BME280;31092;51.924;21.448;2022-12-18T10:51:32;102385.50;;;-5.02;100.00
45357;BME280;31092;51.924;21.448;2022-12-18T10:54:16;102272.31;;;-5.73;100.00
45357;BME280;31092;51.924;21.448;2022-12-18T10:56:43;102289.72;;;-5.61;100.00
45357;BME280;31092;51.924;21.448;2022-12-18T10:59:12;102285.31;;;-5.55;100.00
45357;BME280;31092;51.924;21.448;2022-12-18T11:04:28;102327.03;;;-5.22;100.00
45357;BME280;31092;51.924;21.448;2022-12-18T11:09:23;102363.66;;;-5.04;100.00
45357;BME280;31092;51.924;21.448;2022-12-18T11:11:51;102395.97;;;-4.93;100.00
45357;BME280;31092;51.924;21.448;2022-12-18T11:14:23;102418.56;;;-4.75;100.00
45357;BME280;31092;51.924;21.448;2022-12-18T11:16:50;102336.75;;;-5.34;100.00
45357;BME280;31092;51.924;21.448;2022-12-18T11:19:37;102368.03;;;-5.06;100.00
45357;BME280;31092;51.924;21.448;2022-12-18T11:22:20;102311.38;;;-5.33;100.00
45357;BME280;31092;51.924;21.448;2022-12-18T11:25:03;102326.16;;;-5.21;100.00
45357;BME280;31092;51.924;21.448;2022-12-18T11:27:30;102403.63;;;-4.71;100.00
45357;BME280;31092;51.924;21.448;2022-12-18T11:30:32;102380.91;;;-4.78;100.00
45357;BME280;31092;51.924;21.448;2022-12-18T11:35:59;102434.09;;;-4.47;100.00
45357;BME280;31092;51.924;21.448;2022-12-18T11:38:34;102276.28;;;-5.27;100.00
45357;BME280;31092;51.924;21.448;2022-12-18T11:44:18;102387.00;;;-4.72;100.00
45357;BME280;31092;51.924;21.448;2022-12-18T11:46:56;102365.25;;;-4.89;100.00
45357;BME280;31092;51.924;21.448;2022-12-18T11:49:30;102309.53;;;-5.25;100.00
45357;BME280;31092;51.924;21.448;2022-12-18T11:54:26;102407.97;;;-4.67;100.00
45357;BME280;31092;51.924;21.448;2022-12-18T11:57:01;102300.78;;;-5.27;100.00
45357;BME280;31092;51.924;21.448;2022-12-18T11:59:48;102330.50;;;-5.19;100.00
45357;BME280;31092;51.924;21.448;2022-12-18T12:05:04;102429.94;;;-4.71;100.00
45357;BME280;31092;51.924;21.448;2022-12-18T12:29:49;102469.44;;;-4.81;100.00
45357;BME280;31092;51.924;21.448;2022-12-18T12:40:45;102495.69;;;-4.73;100.00
45357;BME280;31092;51.924;21.448;2022-12-18T12:51:40;102470.31;;;-4.78;100.00
45357;BME280;31092;51.924;21.448;2022-12-18T12:54:17;102400.50;;;-5.12;100.00
45357;BME280;31092;51.924;21.448;2022-12-18T12:56:59;102490.34;;;-4.62;100.00
45357;BME280;31092;51.924;21.448;2022-12-18T12:59:56;102403.97;;;-5.10;100.00
45357;BME280;31092;51.924;21.448;2022-12-18T13:02:35;102451.06;;;-4.82;100.00
45357;BME280;31092;51.924;21.448;2022-12-18T13:08:10;102422.31;;;-5.00;100.00
45357;BME280;31092;51.924;21.448;2022-12-18T13:10:38;102392.69;;;-5.18;100.00
45357;BME280;31092;51.924;21.448;2022-12-18T13:13:08;102503.41;;;-4.54;100.00
45357;BME280;31092;51.924;21.448;2022-12-18T13:15:48;102410.00;;;-4.98;100.00
45357;BME280;31092;51.924;21.448;2022-12-18T13:18:22;102495.50;;;-4.51;100.00
45357;BME280;31092;51.924;21.448;2022-12-18T13:28:16;102492.25;;;-4.84;100.00
45357;BME280;31092;51.924;21.448;2022-12-18T13:38:35;102532.69;;;-4.99;100.00
45357;BME280;31092;51.924;21.448;2022-12-18T13:41:02;102410.59;;;-5.75;100.00
45357;BME280;31092;51.924;21.448;2022-12-18T13:43:35;102414.97;;;-5.77;100.00
45357;BME280;31092;51.924;21.448;2022-12-18T13:46:23;102448.09;;;-5.55;100.00
45357;BME280;31092;51.924;21.448;2022-12-18T13:51:17;102474.34;;;-5.56;100.00
45357;BME280;31092;51.924;21.448;2022-12-18T13:56:21;102500.50;;;-5.35;100.00
45357;BME280;31092;51.924;21.448;2022-12-18T14:01:34;102526.69;;;-5.18;100.00
45357;BME280;31092;51.924;21.448;2022-12-18T14:04:10;102550.22;;;-5.06;100.00
45357;BME280;31092;51.924;21.448;2022-12-18T14:06:36;102435.88;;;-5.60;100.00
45357;BME280;31092;51.924;21.448;2022-12-18T14:09:02;102428.91;;;-5.64;100.00
45357;BME280;31092;51.924;21.448;2022-12-18T14:11:28;102543.25;;;-5.10;100.00
45357;BME280;31092;51.924;21.448;2022-12-18T14:13:56;102365.38;;;-6.23;100.00
45357;BME280;31092;51.924;21.448;2022-12-18T14:16:21;102452.63;;;-5.83;100.00
45357;BME280;31092;51.924;21.448;2022-12-18T14:18:48;102567.88;;;-5.23;100.00
45357;BME280;31092;51.924;21.448;2022-12-18T14:21:26;102450.00;;;-5.87;100.00
45357;BME280;31092;51.924;21.448;2022-12-18T14:24:06;102571.31;;;-5.13;100.00
45357;BME280;31092;51.924;21.448;2022-12-18T14:26:37;102546.91;;;-5.35;100.00
45357;BME280;31092;51.924;21.448;2022-12-18T14:29:26;102456.13;;;-5.84;100.00
45357;BME280;31092;51.924;21.448;2022-12-18T14:32:13;102469.25;;;-5.79;100.00
45357;BME280;31092;51.924;21.448;2022-12-18T14:34:43;102464.00;;;-5.88;100.00
45357;BME280;31092;51.924;21.448;2022-12-18T14:37:13;102471.91;;;-5.91;100.00
45357;BME280;31092;51.924;21.448;2022-12-18T14:39:39;102447.50;;;-6.04;100.00
45357;BME280;31092;51.924;21.448;2022-12-18T14:42:05;102524.31;;;-5.68;100.00
45357;BME280;31092;51.924;21.448;2022-12-18T14:44:30;102459.72;;;-5.98;100.00
45357;BME280;31092;51.924;21.448;2022-12-18T14:46:56;102448.38;;;-6.07;100.00